createdAt,value
2023-04-19T00:01:00.177Z,15.43
2023-04-19T00:03:32.478Z,15.73
2023-04-19T00:06:03.896Z,15.50
2023-04-19T00:08:35.046Z,15.67
2023-04-19T00:11:08.896Z,15.87
2023-04-19T00:13:39.979Z,15.77
2023-04-19T00:16:11.422Z,15.83
2023-04-19T00:18:52.936Z,16.33
2023-04-19T00:21:23.836Z,15.70
2023-04-19T00:23:57.906Z,15.60
2023-04-19T00:26:31.478Z,15.43
2023-04-19T00:29:02.462Z,15.70
2023-04-19T00:31:33.459Z,17.10
2023-04-19T00:34:04.405Z,16.40
2023-04-19T00:36:36.798Z,15.63
2023-04-19T00:39:08.154Z,16.07
2023-04-19T00:41:41.691Z,15.60
2023-04-19T00:44:12.738Z,15.80
2023-04-19T00:46:45.359Z,14.47
2023-04-19T00:49:16.757Z,15.30
2023-04-19T00:51:47.899Z,14.77
2023-04-19T00:54:19.286Z,15.17
2023-04-19T00:56:53.128Z,15.33
2023-04-19T00:59:24.897Z,15.10
2023-04-19T01:01:59.051Z,15.40
2023-04-19T01:04:30.583Z,13.80
2023-04-19T01:07:01.664Z,14.70
2023-04-19T01:09:32.836Z,14.23
2023-04-19T01:12:09.531Z,13.70
2023-04-19T01:14:40.557Z,14.10
2023-04-19T01:17:11.872Z,12.60
2023-04-19T01:19:42.807Z,13.10
2023-04-19T01:22:19.605Z,12.60
2023-04-19T01:24:53.059Z,12.53
2023-04-19T01:27:24.073Z,13.40
2023-04-19T01:29:55.028Z,12.10
2023-04-19T01:32:26.469Z,12.33
2023-04-19T01:34:57.476Z,11.80
2023-04-19T01:37:31.155Z,11.00
2023-04-19T01:40:05.699Z,11.47
2023-04-19T01:42:36.708Z,11.07
2023-04-19T01:45:08.972Z,10.57
2023-04-19T01:47:40.043Z,9.77
2023-04-19T01:50:12.178Z,11.10
2023-04-19T01:52:45.709Z,10.00
2023-04-19T01:55:16.617Z,10.10
2023-04-19T01:57:47.622Z,9.90
2023-04-19T02:00:19.291Z,10.50
2023-04-19T02:02:50.527Z,10.30
2023-04-19T02:05:24.770Z,9.90
2023-04-19T02:07:58.417Z,8.90
2023-04-19T02:10:29.608Z,8.80
2023-04-19T02:13:00.586Z,9.40
2023-04-19T02:15:31.660Z,8.23
2023-04-19T02:18:06.788Z,8.37
2023-04-19T02:20:37.952Z,7.70
2023-04-19T02:23:11.406Z,8.07
2023-04-19T02:25:42.422Z,7.77
2023-04-19T02:28:13.373Z,6.87
2023-04-19T02:30:44.413Z,7.40
2023-04-19T02:33:15.429Z,7.90
2023-04-19T02:35:46.513Z,6.90
2023-04-19T02:38:20.157Z,6.53
2023-04-19T02:40:51.206Z,6.50
2023-04-19T02:43:23.715Z,6.63
2023-04-19T02:45:54.753Z,6.47
2023-04-19T02:48:25.733Z,6.60
2023-04-19T02:50:56.691Z,6.00
2023-04-19T02:53:33.147Z,5.93
2023-04-19T02:56:06.243Z,6.20
2023-04-19T02:58:40.309Z,6.20
2023-04-19T03:01:12.001Z,7.23
2023-04-19T03:03:43.160Z,5.40
2023-04-19T03:06:14.960Z,6.17
2023-04-19T03:08:49.018Z,5.33
2023-04-19T03:11:21.973Z,6.40
2023-04-19T03:13:53.031Z,6.30
2023-04-19T03:16:24.010Z,4.50
2023-04-19T03:18:55.121Z,6.00
2023-04-19T03:21:27.575Z,5.77
2023-04-19T03:24:01.011Z,6.13
2023-04-19T03:26:32.224Z,6.10
2023-04-19T03:29:05.610Z,5.93
2023-04-19T03:31:36.546Z,5.50
2023-04-19T03:34:08.870Z,5.50
2023-04-19T03:36:39.746Z,5.07
2023-04-19T03:39:13.181Z,5.47
2023-04-19T03:41:45.576Z,5.40
2023-04-19T03:44:16.657Z,5.83
2023-04-19T03:46:51.510Z,5.50
2023-04-19T03:49:22.425Z,5.00
2023-04-19T03:51:56.193Z,5.87
2023-04-19T03:54:29.698Z,5.50
2023-04-19T03:57:00.702Z,5.20
2023-04-19T03:59:34.418Z,5.70
2023-04-19T04:02:05.687Z,4.93
2023-04-19T04:04:36.982Z,5.73
2023-04-19T04:07:08.111Z,5.20
2023-04-19T04:09:41.664Z,5.00
2023-04-19T04:12:13.375Z,5.67
2023-04-19T04:14:44.315Z,5.57
2023-04-19T04:17:18.073Z,5.17
2023-04-19T04:19:49.056Z,5.27
2023-04-19T04:22:23.172Z,6.10
2023-04-19T04:25:01.502Z,5.33
2023-04-19T04:27:34.850Z,6.00
2023-04-19T04:30:07.126Z,6.10
2023-04-19T04:32:38.436Z,6.67
2023-04-19T04:35:11.557Z,5.63
2023-04-19T04:37:43.915Z,6.07
2023-04-19T04:40:18.164Z,5.77
2023-04-19T04:42:49.649Z,5.83
2023-04-19T04:45:20.860Z,6.77
2023-04-19T04:47:52.419Z,6.23
2023-04-19T04:50:23.366Z,6.87
2023-04-19T04:52:55.024Z,6.83
2023-04-19T04:55:28.586Z,6.90
2023-04-19T04:57:59.556Z,6.17
2023-04-19T05:00:33.181Z,6.53
2023-04-19T05:03:04.889Z,5.73
2023-04-19T05:05:36.185Z,6.63
2023-04-19T05:08:07.704Z,6.03
2023-04-19T05:10:41.382Z,6.30
2023-04-19T05:13:12.366Z,8.00
2023-04-19T05:15:43.392Z,6.80
2023-04-19T05:18:14.316Z,6.23
2023-04-19T05:20:46.883Z,7.00
2023-04-19T05:23:18.798Z,6.60
2023-04-19T05:25:52.536Z,6.73
2023-04-19T05:28:23.552Z,6.50
2023-04-19T05:30:55.564Z,7.50
2023-04-19T05:33:26.614Z,6.83
2023-04-19T05:35:57.494Z,6.40
2023-04-19T05:38:28.719Z,7.17
2023-04-19T05:41:02.421Z,7.20
2023-04-19T05:43:33.360Z,6.63
2023-04-19T05:46:04.271Z,6.80
2023-04-19T05:48:35.480Z,6.47
2023-04-19T05:51:06.833Z,6.53
2023-04-19T05:53:37.793Z,6.60
2023-04-19T05:56:11.392Z,6.60
2023-04-19T05:58:42.414Z,5.90
2023-04-19T06:01:13.625Z,7.57
2023-04-19T06:03:44.788Z,6.40
2023-04-19T06:06:16.178Z,6.10
2023-04-19T06:08:47.339Z,5.80
2023-04-19T06:11:31.544Z,5.60
2023-04-19T06:14:09.874Z,5.70
2023-04-19T06:16:40.893Z,5.87
2023-04-19T06:19:12.162Z,4.87
2023-04-19T06:21:43.070Z,4.43
2023-04-19T06:24:14.157Z,4.70
2023-04-19T06:26:49.805Z,5.03
2023-04-19T06:29:21.919Z,4.80
2023-04-19T06:31:53.126Z,4.60
2023-04-19T06:34:26.957Z,5.00
2023-04-19T06:36:57.885Z,5.30
2023-04-19T06:39:28.851Z,5.30
2023-04-19T06:42:02.528Z,4.87
2023-04-19T06:44:33.491Z,5.03
2023-04-19T06:47:04.407Z,4.57
2023-04-19T06:49:35.663Z,4.70
2023-04-19T06:52:06.596Z,4.93
2023-04-19T06:54:37.620Z,4.50
2023-04-19T06:57:11.192Z,4.77
2023-04-19T06:59:42.210Z,3.80
2023-04-19T07:02:13.787Z,4.70
2023-04-19T07:04:45.005Z,4.10
2023-04-19T07:07:16.760Z,4.40
2023-04-19T07:09:47.747Z,4.10
2023-04-19T07:12:22.020Z,4.10
2023-04-19T07:14:56.577Z,4.20
2023-04-19T07:17:27.892Z,3.80
2023-04-19T07:19:58.863Z,4.30
2023-04-19T07:22:29.789Z,3.80
2023-04-19T07:25:00.801Z,4.00
2023-04-19T07:27:34.368Z,3.83
2023-04-19T07:30:05.346Z,3.47
2023-04-19T07:32:36.507Z,4.27
2023-04-19T07:35:08.559Z,3.73
2023-04-19T07:37:39.452Z,4.30
2023-04-19T07:40:11.839Z,4.20
2023-04-19T07:42:46.224Z,3.60
2023-04-19T07:45:17.408Z,3.43
2023-04-19T07:47:48.343Z,3.50
2023-04-19T07:50:19.729Z,4.37
2023-04-19T07:52:51.944Z,3.67
2023-04-19T07:55:23.310Z,3.53
2023-04-19T07:57:56.891Z,3.60
2023-04-19T08:00:30.011Z,3.70
2023-04-19T08:03:01.185Z,3.90
2023-04-19T08:05:32.674Z,3.40
2023-04-19T08:08:04.041Z,4.00
2023-04-19T08:10:36.018Z,3.37
2023-04-19T08:13:09.660Z,3.60
2023-04-19T08:18:14.824Z,3.50
2023-04-19T08:20:46.626Z,3.27
2023-04-19T08:23:22.727Z,3.33
2023-04-19T08:25:56.960Z,3.10
2023-04-19T08:28:30.529Z,2.80
2023-04-19T08:31:02.627Z,3.50
2023-04-19T08:33:33.574Z,2.53
2023-04-19T08:36:04.511Z,3.00
2023-04-19T08:38:35.468Z,2.90
2023-04-19T08:41:06.314Z,2.90
2023-04-19T08:43:41.836Z,2.87
2023-04-19T08:46:14.961Z,3.40
2023-04-19T08:48:47.678Z,2.67
2023-04-19T08:51:20.646Z,2.27
2023-04-19T08:53:52.573Z,2.50
2023-04-19T08:56:34.805Z,2.57
2023-04-19T08:59:17.957Z,3.50
2023-04-19T09:01:50.842Z,2.90
2023-04-19T09:04:36.514Z,2.33
2023-04-19T09:07:08.657Z,2.50
2023-04-19T09:09:55.444Z,2.60
2023-04-19T09:12:31.181Z,2.77
2023-04-19T09:15:06.873Z,2.23
2023-04-19T09:17:41.013Z,3.37
2023-04-19T09:20:12.340Z,2.50
2023-04-19T09:22:43.376Z,2.30
2023-04-19T09:28:12.769Z,2.53
2023-04-19T09:30:58.652Z,2.63
2023-04-19T09:33:36.391Z,2.80
2023-04-19T09:36:08.782Z,2.90
2023-04-19T09:38:50.522Z,2.40
2023-04-19T09:41:21.752Z,2.40
2023-04-19T09:44:07.772Z,2.93
2023-04-19T09:46:51.002Z,3.10
2023-04-19T09:49:41.824Z,2.90
2023-04-19T09:52:17.747Z,3.00
2023-04-19T09:54:53.867Z,2.93
2023-04-19T09:57:24.919Z,2.63
2023-04-19T09:59:56.000Z,2.87
2023-04-19T10:02:33.114Z,2.90
2023-04-19T10:07:40.909Z,3.07
2023-04-19T10:10:20.500Z,3.53
2023-04-19T10:15:47.177Z,2.90
2023-04-19T10:18:24.044Z,3.10
2023-04-19T10:21:01.730Z,2.57
2023-04-19T10:23:39.976Z,3.27
2023-04-19T10:26:11.382Z,2.90
2023-04-19T10:28:44.334Z,3.03
2023-04-19T10:31:16.148Z,2.77
2023-04-19T10:33:51.582Z,2.73
2023-04-19T10:36:24.612Z,2.80
2023-04-19T10:38:55.909Z,2.40
2023-04-19T10:41:27.906Z,2.70
2023-04-19T10:44:13.163Z,2.90
2023-04-19T10:46:44.066Z,3.10
2023-04-19T10:49:17.772Z,2.43
2023-04-19T10:51:55.102Z,3.20
2023-04-19T10:54:34.360Z,3.23
2023-04-19T10:57:07.263Z,2.90
2023-04-19T10:59:40.532Z,3.07
2023-04-19T11:02:34.560Z,2.70
2023-04-19T11:05:10.227Z,2.93
2023-04-19T11:07:42.625Z,3.13
2023-04-19T11:10:14.347Z,3.53
2023-04-19T11:12:46.683Z,2.70
2023-04-19T11:15:17.701Z,3.00
2023-04-19T11:18:08.823Z,3.50
2023-04-19T11:20:46.553Z,3.40
2023-04-19T11:23:21.942Z,2.70
2023-04-19T11:25:58.400Z,3.40
2023-04-19T11:28:29.439Z,3.43
2023-04-19T11:31:00.735Z,3.40
2023-04-19T11:33:36.278Z,3.70
2023-04-19T11:36:15.382Z,3.63
2023-04-19T11:38:52.006Z,3.53
2023-04-19T11:41:23.167Z,3.10
2023-04-19T11:43:54.773Z,3.57
2023-04-19T11:46:28.121Z,3.60
2023-04-19T11:49:02.356Z,3.33
2023-04-19T11:51:37.219Z,3.90
2023-04-19T11:54:18.648Z,4.10
2023-04-19T11:57:06.705Z,4.40
2023-04-19T11:59:39.052Z,3.77
2023-04-19T12:02:11.462Z,4.60
2023-04-19T12:04:43.998Z,3.90
2023-04-19T12:07:17.796Z,3.30
2023-04-19T12:09:52.558Z,4.40
2023-04-19T12:12:35.036Z,4.03
2023-04-19T12:15:06.044Z,4.07
2023-04-19T12:17:40.090Z,4.03
2023-04-19T12:20:16.029Z,4.53
2023-04-19T12:22:49.850Z,4.10
2023-04-19T12:25:21.257Z,4.27
2023-04-19T12:27:52.181Z,3.77
2023-04-19T12:30:23.386Z,4.10
2023-04-19T12:32:58.191Z,5.20
2023-04-19T12:35:30.365Z,4.20
2023-04-19T12:38:03.954Z,4.47
2023-04-19T12:40:35.282Z,4.20
2023-04-19T12:43:06.225Z,4.00
2023-04-19T12:45:37.315Z,3.83
2023-04-19T12:48:09.019Z,4.10
2023-04-19T12:50:40.057Z,3.87
2023-04-19T12:53:13.534Z,4.23
2023-04-19T12:55:47.446Z,3.70
2023-04-19T12:58:18.971Z,3.93
2023-04-19T13:00:52.395Z,4.07
2023-04-19T13:03:23.528Z,4.30
2023-04-19T13:05:54.866Z,4.07
2023-04-19T13:08:43.364Z,3.30
2023-04-19T13:11:17.926Z,3.30
2023-04-19T13:13:48.915Z,3.73
2023-04-19T13:16:19.873Z,3.80
2023-04-19T13:18:51.149Z,3.30
2023-04-19T13:21:23.656Z,3.50
2023-04-19T13:24:01.207Z,3.80
2023-04-19T13:26:34.134Z,3.70
2023-04-19T13:29:05.247Z,3.83
2023-04-19T13:31:36.193Z,3.37
2023-04-19T13:34:07.170Z,3.67
2023-04-19T13:36:38.130Z,4.30
2023-04-19T13:39:12.988Z,3.37
2023-04-19T13:41:44.022Z,4.00
2023-04-19T13:44:15.854Z,3.37
2023-04-19T13:46:47.398Z,3.27
2023-04-19T13:49:18.451Z,3.27
2023-04-19T13:51:51.030Z,3.17
2023-04-19T13:54:25.040Z,3.60
2023-04-19T13:56:56.350Z,2.80
2023-04-19T13:59:27.504Z,2.70
2023-04-19T14:01:58.694Z,2.70
2023-04-19T14:04:29.720Z,3.27
2023-04-19T14:07:01.129Z,3.10
2023-04-19T14:09:34.718Z,2.83
2023-04-19T14:12:05.897Z,3.27
2023-04-19T14:14:36.937Z,3.00
2023-04-19T14:17:07.863Z,3.20
2023-04-19T14:19:39.276Z,3.03
2023-04-19T14:22:10.336Z,3.07
2023-04-19T14:24:43.888Z,3.00
2023-04-19T14:27:15.090Z,3.20
2023-04-19T14:29:46.096Z,3.97
2023-04-19T14:32:25.981Z,3.03
2023-04-19T14:34:58.131Z,3.30
2023-04-19T14:37:29.262Z,3.10
2023-04-19T14:40:02.938Z,3.30
2023-04-19T14:42:33.947Z,2.93
2023-04-19T14:45:04.852Z,3.23
2023-04-19T14:47:36.143Z,3.30
2023-04-19T14:50:07.543Z,3.13
2023-04-19T14:52:38.437Z,3.07
2023-04-19T14:55:13.650Z,3.03
2023-04-19T14:57:44.505Z,3.30
2023-04-19T15:00:16.646Z,3.10
2023-04-19T15:02:47.817Z,2.67
2023-04-19T15:05:19.069Z,2.67
2023-04-19T15:07:50.708Z,2.53
2023-04-19T15:10:26.956Z,2.40
2023-04-19T15:12:58.173Z,2.47
2023-04-19T15:15:29.256Z,2.97
2023-04-19T15:18:00.251Z,2.47
2023-04-19T15:20:31.404Z,2.80
2023-04-19T15:23:02.450Z,2.70
2023-04-19T15:25:38.013Z,2.30
2023-04-19T15:28:08.918Z,2.33
2023-04-19T15:30:39.786Z,2.57
2023-04-19T15:33:11.331Z,2.40
2023-04-19T15:35:42.295Z,2.20
2023-04-19T15:38:13.244Z,2.10
2023-04-19T15:40:46.741Z,2.00
2023-04-19T15:43:17.893Z,2.30
2023-04-19T15:45:49.013Z,2.20
2023-04-19T15:48:20.727Z,2.30
2023-04-19T15:50:54.285Z,2.40
2023-04-19T15:53:25.330Z,2.30
2023-04-19T15:55:59.461Z,2.20
2023-04-19T15:58:30.403Z,3.30
2023-04-19T16:01:01.381Z,2.20
2023-04-19T16:03:32.483Z,2.00
2023-04-19T16:06:03.742Z,2.33
2023-04-19T16:08:34.651Z,2.10
2023-04-19T16:11:08.531Z,2.13
2023-04-19T16:13:39.482Z,2.43
2023-04-19T16:16:10.717Z,2.40
2023-04-19T16:18:41.704Z,2.50
2023-04-19T16:21:13.480Z,2.43
2023-04-19T16:23:44.431Z,2.30
2023-04-19T16:26:18.021Z,2.40
2023-04-19T16:28:49.617Z,2.90
2023-04-19T16:31:20.692Z,2.57
2023-04-19T16:33:52.067Z,2.90
2023-04-19T16:36:22.991Z,3.10
2023-04-19T16:38:54.141Z,2.70
2023-04-19T16:41:27.864Z,2.30
2023-04-19T16:43:58.850Z,2.57
2023-04-19T16:46:29.912Z,2.30
2023-04-19T16:49:01.192Z,2.17
2023-04-19T16:51:32.277Z,2.30
2023-04-19T16:54:05.917Z,2.50
2023-04-19T16:56:41.895Z,2.10
2023-04-19T16:59:12.799Z,2.40
2023-04-19T17:01:44.459Z,2.20
2023-04-19T17:04:15.639Z,3.13
2023-04-19T17:06:46.816Z,3.03
2023-04-19T17:09:18.051Z,2.70
2023-04-19T17:11:51.732Z,2.93
2023-04-19T17:14:22.701Z,3.13
2023-04-19T17:16:54.107Z,3.00
2023-04-19T17:19:25.133Z,3.03
2023-04-19T17:21:56.767Z,3.00
2023-04-19T17:24:27.721Z,3.00
2023-04-19T17:27:01.220Z,2.90
2023-04-19T17:29:32.613Z,3.70
2023-04-19T17:32:03.821Z,3.43
2023-04-19T17:34:36.675Z,3.70
2023-04-19T17:37:08.129Z,2.63
2023-04-19T17:39:39.018Z,3.10
2023-04-19T17:42:12.622Z,2.87
2023-04-19T17:44:43.675Z,3.53
2023-04-19T17:47:14.610Z,3.43
2023-04-19T17:49:48.606Z,3.00
2023-04-19T17:52:19.621Z,3.60
2023-04-19T17:54:51.527Z,3.40
2023-04-19T17:57:28.665Z,3.17
2023-04-19T18:00:00.379Z,3.50
2023-04-19T18:02:31.491Z,4.17
2023-04-19T18:05:02.874Z,3.67
2023-04-19T18:07:34.370Z,3.67
2023-04-19T18:10:06.046Z,3.63
2023-04-19T18:12:39.620Z,3.60
2023-04-19T18:15:11.996Z,3.60
2023-04-19T18:17:42.923Z,3.63
2023-04-19T18:20:14.606Z,3.67
2023-04-19T18:22:45.827Z,3.93
2023-04-19T18:25:17.082Z,4.10
2023-04-19T18:27:53.751Z,4.30
2023-04-19T18:30:27.665Z,4.10
2023-04-19T18:33:01.033Z,4.17
2023-04-19T18:35:33.102Z,4.17
2023-04-19T18:38:06.219Z,3.67
2023-04-19T18:40:37.246Z,3.70
2023-04-19T18:43:10.835Z,3.80
2023-04-19T18:45:41.949Z,3.90
2023-04-19T18:48:13.034Z,3.73
2023-04-19T18:50:44.028Z,3.77
2023-04-19T18:53:15.311Z,4.10
2023-04-19T18:55:46.457Z,3.07
2023-04-19T18:58:20.122Z,3.70
2023-04-19T19:00:52.399Z,3.43
2023-04-19T19:05:58.844Z,3.97
2023-04-19T19:08:30.451Z,3.60
2023-04-19T19:13:38.687Z,3.77
2023-04-19T19:16:09.780Z,4.10
2023-04-19T19:18:41.159Z,4.00
2023-04-19T19:21:12.142Z,4.37
2023-04-19T19:23:43.022Z,4.60
2023-04-19T19:26:15.274Z,3.80
2023-04-19T19:28:49.162Z,4.00
2023-04-19T19:31:20.158Z,3.60
2023-04-19T19:34:04.176Z,3.80
2023-04-19T19:36:42.468Z,3.97
2023-04-19T19:39:13.622Z,4.00
2023-04-19T19:44:24.317Z,3.60
2023-04-19T19:46:56.409Z,3.30
2023-04-19T19:49:27.615Z,3.60
2023-04-19T19:51:59.672Z,4.30
2023-04-19T19:54:30.890Z,3.57
2023-04-19T19:59:39.347Z,3.87
2023-04-19T20:02:11.318Z,3.87
2023-04-19T20:04:43.821Z,4.13
2023-04-19T20:09:51.056Z,3.80
2023-04-19T20:12:22.011Z,4.40
2023-04-19T20:14:55.624Z,3.87
2023-04-19T20:17:26.886Z,3.70
2023-04-19T20:19:58.387Z,3.70
2023-04-19T20:22:29.426Z,3.80
2023-04-19T20:25:00.637Z,4.03
2023-04-19T20:27:31.723Z,4.87
2023-04-19T20:30:05.201Z,4.27
2023-04-19T20:32:36.637Z,3.63
2023-04-19T20:35:12.124Z,4.07
2023-04-19T20:37:44.572Z,4.13
2023-04-19T20:40:17.782Z,3.50
2023-04-19T20:42:49.045Z,4.10
2023-04-19T20:45:25.718Z,4.27
2023-04-19T20:47:58.579Z,3.70
2023-04-19T20:50:29.878Z,3.80
2023-04-19T20:53:00.980Z,4.17
2023-04-19T20:55:33.594Z,3.63
2023-04-19T20:58:04.776Z,4.17
2023-04-19T21:00:38.315Z,3.67
2023-04-19T21:03:09.358Z,4.40
2023-04-19T21:05:40.387Z,4.40
2023-04-19T21:08:11.423Z,3.60
2023-04-19T21:10:42.413Z,4.17
2023-04-19T21:13:13.877Z,3.93
2023-04-19T21:15:47.529Z,4.47
2023-04-19T21:18:18.565Z,3.67
2023-04-19T21:20:49.571Z,3.40
2023-04-19T21:23:21.030Z,3.67
2023-04-19T21:25:52.090Z,4.23
2023-04-19T21:28:23.107Z,3.77
2023-04-19T21:31:02.994Z,3.00
2023-04-19T21:33:34.138Z,3.70
2023-04-19T21:36:05.227Z,3.90
2023-04-19T21:38:37.919Z,3.80
2023-04-19T21:41:10.954Z,3.50
2023-04-19T21:43:41.973Z,3.43
2023-04-19T21:46:15.546Z,3.60
2023-04-19T21:48:46.489Z,3.40
2023-04-19T21:51:17.501Z,3.87
2023-04-19T21:53:48.495Z,3.40
2023-04-19T21:56:19.505Z,4.13
2023-04-19T21:58:50.559Z,3.43
2023-04-19T22:01:24.129Z,3.90
2023-04-19T22:03:55.313Z,3.60
2023-04-19T22:06:26.562Z,4.50
2023-04-19T22:08:59.390Z,6.67
2023-04-19T22:11:31.524Z,5.27
2023-04-19T22:14:04.862Z,4.20
2023-04-19T22:16:42.451Z,3.53
2023-04-19T22:19:13.685Z,3.67
2023-04-19T22:21:44.880Z,3.77
2023-04-19T22:24:16.521Z,3.40
2023-04-19T22:26:47.410Z,3.70
2023-04-19T22:29:21.112Z,3.53
2023-04-19T22:31:55.692Z,3.80
2023-04-19T22:34:26.739Z,3.80
2023-04-19T22:36:57.790Z,3.40
2023-04-19T22:39:28.818Z,3.60
2023-04-19T22:41:59.837Z,3.80
2023-04-19T22:44:31.079Z,3.50
2023-04-19T22:47:05.430Z,3.97
2023-04-19T22:49:36.542Z,3.57
2023-04-19T22:52:08.183Z,3.70
2023-04-19T22:54:39.060Z,4.00
2023-04-19T22:57:11.405Z,3.90
2023-04-19T22:59:42.660Z,3.63
2023-04-19T23:02:16.247Z,3.67
2023-04-19T23:04:48.646Z,3.50
2023-04-19T23:07:22.106Z,3.63
2023-04-19T23:09:57.959Z,4.10
2023-04-19T23:12:40.130Z,3.80
2023-04-19T23:15:12.633Z,3.47
2023-04-19T23:17:44.288Z,3.87
2023-04-19T23:20:15.946Z,3.33
2023-04-19T23:22:46.892Z,3.83
2023-04-19T23:25:17.804Z,3.90
2023-04-19T23:27:51.979Z,3.17
2023-04-19T23:30:23.105Z,3.40
2023-04-19T23:32:53.971Z,3.00
2023-04-19T23:35:25.288Z,3.60
2023-04-19T23:37:58.136Z,3.30
2023-04-19T23:40:29.144Z,3.20
2023-04-19T23:43:02.582Z,3.83
2023-04-19T23:48:53.621Z,3.20
2023-04-19T23:51:24.486Z,3.50
2023-04-19T23:53:55.583Z,3.60
2023-04-19T23:56:31.849Z,3.43
2023-04-19T23:59:05.540Z,4.30
